createdAt,value
2022-10-05T00:04:53.976Z,101448.69
2022-10-05T00:09:59.287Z,101442.44
2022-10-05T00:15:01.769Z,101436.56
2022-10-05T00:20:17.193Z,101442.44
2022-10-05T00:25:21.771Z,101431.22
2022-10-05T00:30:25.700Z,101438.00
2022-10-05T00:35:29.265Z,101415.91
2022-10-05T00:40:36.926Z,101407.47
2022-10-05T00:45:52.175Z,101406.03
2022-10-05T00:51:27.152Z,101398.13
2022-10-05T00:56:37.352Z,101399.59
2022-10-05T01:01:55.697Z,101409.41
2022-10-05T01:07:02.902Z,101397.59
2022-10-05T01:12:24.772Z,101402.97
2022-10-05T01:17:36.527Z,101382.72
2022-10-05T01:23:13.612Z,101382.56
2022-10-05T01:28:47.899Z,101374.91
2022-10-05T01:34:06.703Z,101374.06
2022-10-05T01:39:40.757Z,101362.97
2022-10-05T01:44:58.384Z,101365.53
2022-10-05T01:50:11.652Z,101358.22
2022-10-05T01:55:27.044Z,101353.88
2022-10-05T02:00:32.749Z,101361.34
2022-10-05T02:06:00.841Z,101354.25
2022-10-05T02:11:07.456Z,101356.09
2022-10-05T02:16:28.405Z,101343.81
2022-10-05T02:21:33.541Z,101335.78
2022-10-05T02:26:37.449Z,101329.97
2022-10-05T02:31:50.864Z,101325.53
2022-10-05T02:37:34.199Z,101319.88
2022-10-05T02:42:54.517Z,101316.69
2022-10-05T02:48:20.407Z,101319.13
2022-10-05T02:53:55.518Z,101312.09
2022-10-05T02:58:56.864Z,101304.03
2022-10-05T03:04:10.116Z,101291.38
2022-10-05T03:09:13.893Z,101289.34
2022-10-05T03:14:30.577Z,101296.03
2022-10-05T03:19:47.253Z,101282.53
2022-10-05T03:25:22.193Z,101272.84
2022-10-05T03:30:26.521Z,101273.78
2022-10-05T03:35:30.669Z,101283.22
2022-10-05T03:40:41.603Z,101279.09
2022-10-05T03:45:57.428Z,101287.28
2022-10-05T03:51:19.972Z,101281.13
2022-10-05T03:56:38.495Z,101276.63
2022-10-05T04:01:45.530Z,101286.31
2022-10-05T04:06:52.920Z,101284.31
2022-10-05T04:11:57.360Z,101285.34
2022-10-05T04:17:01.191Z,101285.72
2022-10-05T04:22:23.155Z,101274.53
2022-10-05T04:27:35.912Z,101260.19
2022-10-05T04:32:42.032Z,101264.81
2022-10-05T04:37:55.277Z,101250.34
2022-10-05T04:43:19.461Z,101251.19
2022-10-05T04:48:38.716Z,101244.06
2022-10-05T04:53:50.580Z,101244.13
2022-10-05T04:59:05.432Z,101238.81
2022-10-05T05:04:25.567Z,101236.25
2022-10-05T05:10:11.096Z,101236.00
2022-10-05T05:15:27.533Z,101233.50
2022-10-05T05:20:56.081Z,101224.63
2022-10-05T05:26:03.569Z,101221.31
2022-10-05T05:31:34.615Z,101221.59
2022-10-05T05:36:57.904Z,101211.00
2022-10-05T05:42:32.202Z,101201.22
2022-10-05T05:47:37.761Z,101210.03
2022-10-05T05:52:49.169Z,101212.28
2022-10-05T05:57:56.663Z,101197.78
2022-10-05T06:03:11.454Z,101196.88
2022-10-05T06:08:43.308Z,101201.13
2022-10-05T06:13:46.006Z,101191.47
2022-10-05T06:18:57.222Z,101192.59
2022-10-05T06:24:01.258Z,101193.22
2022-10-05T06:29:08.995Z,101206.47
2022-10-05T06:34:27.675Z,101193.13
2022-10-05T06:39:40.239Z,101200.94
2022-10-05T06:45:04.879Z,101220.91
2022-10-05T06:50:35.243Z,101217.84
2022-10-05T06:55:54.155Z,101220.63
2022-10-05T07:01:01.700Z,101225.50
2022-10-05T07:06:15.202Z,101228.44
2022-10-05T07:11:43.332Z,101230.13
2022-10-05T07:16:56.442Z,101225.31
2022-10-05T07:22:19.740Z,101230.19
2022-10-05T07:27:25.279Z,101228.00
2022-10-05T07:33:12.103Z,101229.97
2022-10-05T07:38:26.368Z,101225.75
2022-10-05T07:44:02.174Z,101223.34
2022-10-05T07:49:19.699Z,101212.13
2022-10-05T07:54:24.038Z,101228.97
2022-10-05T07:59:34.463Z,101206.78
2022-10-05T08:04:53.379Z,101191.91
2022-10-05T08:10:42.507Z,101201.44
2022-10-05T08:15:50.477Z,101203.16
2022-10-05T08:20:57.880Z,101208.09
2022-10-05T08:26:11.926Z,101207.22
2022-10-05T08:31:25.102Z,101205.97
2022-10-05T08:36:56.318Z,101201.06
2022-10-05T08:42:17.664Z,101211.13
2022-10-05T08:47:46.795Z,101212.09
2022-10-05T08:53:12.165Z,101209.34
2022-10-05T08:58:44.762Z,101207.50
2022-10-05T09:04:19.864Z,101203.88
2022-10-05T09:09:52.023Z,101192.63
2022-10-05T09:15:24.266Z,101184.06
2022-10-05T09:20:41.426Z,101194.63
2022-10-05T09:26:09.240Z,101187.09
2022-10-05T09:31:37.164Z,101191.47
2022-10-05T09:36:47.775Z,101171.38
2022-10-05T09:41:58.330Z,101175.22
2022-10-05T09:47:07.458Z,101170.75
2022-10-05T09:52:46.755Z,101166.97
2022-10-05T09:58:12.450Z,101158.19
2022-10-05T10:03:21.135Z,101161.69
2022-10-05T10:08:44.194Z,101165.81
2022-10-05T10:13:53.406Z,101166.00
2022-10-05T10:19:24.178Z,101153.59
2022-10-05T10:25:10.799Z,101164.16
2022-10-05T10:30:39.255Z,101153.66
2022-10-05T10:36:08.936Z,101154.84
2022-10-05T10:41:30.279Z,101147.25
2022-10-05T10:47:05.753Z,101143.69
2022-10-05T10:52:31.879Z,101142.22
2022-10-05T10:58:21.573Z,101145.25
2022-10-05T11:03:28.728Z,101142.50
2022-10-05T11:08:36.760Z,101133.59
2022-10-05T11:14:02.716Z,101148.88
2022-10-05T11:19:39.990Z,101156.13
2022-10-05T11:24:51.005Z,101147.72
2022-10-05T11:30:19.951Z,101140.34
2022-10-05T11:35:34.452Z,101142.38
2022-10-05T11:40:41.725Z,101133.34
2022-10-05T11:46:08.217Z,101135.84
2022-10-05T11:51:19.282Z,101122.88
2022-10-05T11:56:33.707Z,101110.75
2022-10-05T12:01:52.628Z,101113.88
2022-10-05T12:07:00.180Z,101105.31
2022-10-05T12:12:17.497Z,101108.97
2022-10-05T12:17:37.836Z,101115.50
2022-10-05T12:22:46.528Z,101108.91
2022-10-05T12:27:53.289Z,101112.41
2022-10-05T12:33:14.281Z,101115.31
2022-10-05T12:38:41.446Z,101101.56
2022-10-05T12:44:06.431Z,101104.72
2022-10-05T12:49:13.952Z,101101.38
2022-10-05T12:54:30.451Z,101093.47
2022-10-05T12:59:50.599Z,101096.34
2022-10-05T13:05:13.392Z,101101.72
2022-10-05T13:10:45.048Z,101095.09
2022-10-05T13:15:58.177Z,101094.41
2022-10-05T13:21:13.298Z,101106.72
2022-10-05T13:26:21.926Z,101086.56
2022-10-05T13:31:31.035Z,101080.72
2022-10-05T13:36:53.711Z,101078.66
2022-10-05T13:42:04.695Z,101084.69
2022-10-05T13:47:24.190Z,101075.59
2022-10-05T13:53:04.089Z,101076.44
2022-10-05T13:58:11.570Z,101087.00
2022-10-05T14:03:35.088Z,101081.81
2022-10-05T14:08:49.432Z,101071.25
2022-10-05T14:14:00.365Z,101068.41
2022-10-05T14:19:04.859Z,101064.53
2022-10-05T14:24:43.193Z,101066.31
2022-10-05T14:30:03.353Z,101055.59
2022-10-05T14:35:14.004Z,101042.59
2022-10-05T14:40:24.714Z,101040.09
2022-10-05T14:45:33.282Z,101041.19
2022-10-05T14:51:10.606Z,101040.44
2022-10-05T14:56:44.149Z,101036.69
2022-10-05T15:01:58.959Z,101021.78
2022-10-05T15:07:38.977Z,101027.00
2022-10-05T15:12:49.640Z,101023.44
2022-10-05T15:18:00.816Z,101035.38
2022-10-05T15:23:24.990Z,101023.94
2022-10-05T15:28:38.985Z,101015.28
2022-10-05T15:34:03.846Z,101011.84
2022-10-05T15:39:48.201Z,101016.44
2022-10-05T15:45:06.344Z,101004.19
2022-10-05T15:50:26.263Z,101005.09
2022-10-05T15:55:32.120Z,101015.75
2022-10-05T16:00:44.366Z,101015.81
2022-10-05T16:06:04.201Z,101016.25
2022-10-05T16:11:16.993Z,101011.31
2022-10-05T16:16:30.101Z,101006.41
2022-10-05T16:21:45.837Z,101016.50
2022-10-05T16:27:00.642Z,101019.84
2022-10-05T16:32:19.069Z,101020.34
2022-10-05T16:37:46.565Z,101029.28
2022-10-05T16:43:25.662Z,101035.47
2022-10-05T16:48:59.457Z,101030.50
2022-10-05T16:54:22.669Z,101032.34
2022-10-05T16:59:26.930Z,101031.56
2022-10-05T17:04:54.426Z,101015.34
2022-10-05T17:10:18.044Z,101031.56
2022-10-05T17:16:04.148Z,101031.66
2022-10-05T17:21:15.369Z,101036.69
2022-10-05T17:26:22.927Z,101033.28
2022-10-05T17:31:28.114Z,101028.09
2022-10-05T17:36:50.372Z,101032.41
2022-10-05T17:41:52.003Z,101018.13
2022-10-05T17:46:58.484Z,101020.47
2022-10-05T17:52:23.080Z,101014.06
2022-10-05T17:57:27.772Z,101009.19
2022-10-05T18:02:36.351Z,100996.81
2022-10-05T18:07:40.318Z,100994.31
2022-10-05T18:12:45.278Z,101003.16
2022-10-05T18:17:50.616Z,101001.41
2022-10-05T18:22:55.658Z,100995.38
2022-10-05T18:28:21.497Z,101004.22
2022-10-05T18:33:44.527Z,100995.25
2022-10-05T18:38:53.050Z,100991.81
2022-10-05T18:44:12.034Z,100984.81
2022-10-05T18:49:19.867Z,100978.56
2022-10-05T18:55:01.997Z,100974.59
2022-10-05T19:00:06.786Z,100971.28
2022-10-05T19:05:47.028Z,100968.97
2022-10-05T19:10:57.648Z,100957.72
2022-10-05T19:16:25.750Z,100947.03
2022-10-05T19:21:46.838Z,100956.00
2022-10-05T19:27:22.017Z,100962.47
2022-10-05T19:32:48.880Z,100966.25
2022-10-05T19:38:05.759Z,100965.47
2022-10-05T19:43:35.448Z,100972.16
2022-10-05T19:48:48.413Z,100973.63
2022-10-05T19:53:51.384Z,100987.44
2022-10-05T19:58:57.559Z,100984.66
2022-10-05T20:03:59.600Z,100983.56
2022-10-05T20:09:19.553Z,100973.53
2022-10-05T20:14:30.284Z,100975.47
2022-10-05T20:19:50.512Z,100974.94
2022-10-05T20:24:54.868Z,100973.38
2022-10-05T20:29:57.406Z,100974.22
2022-10-05T20:35:02.375Z,100977.47
2022-10-05T20:40:05.160Z,100975.44
2022-10-05T20:45:07.154Z,100986.00
2022-10-05T20:50:10.356Z,100988.06
2022-10-05T20:55:12.312Z,101000.38
2022-10-05T21:00:14.027Z,100997.56
2022-10-05T21:05:18.146Z,101007.59
2022-10-05T21:10:19.919Z,101011.22
2022-10-05T21:15:23.278Z,100999.59
2022-10-05T21:20:24.788Z,101000.78
2022-10-05T21:25:26.950Z,101032.34
2022-10-05T21:30:28.423Z,101021.56
2022-10-05T21:35:30.023Z,101023.50
2022-10-05T21:40:31.516Z,101035.06
2022-10-05T21:45:33.032Z,101036.69
2022-10-05T21:50:35.273Z,101055.22
2022-10-05T21:55:41.271Z,101085.81
2022-10-05T22:00:42.915Z,101077.78
2022-10-05T22:05:44.511Z,101079.59
2022-10-05T22:10:46.121Z,101084.41
2022-10-05T22:15:47.635Z,101084.88
2022-10-05T22:20:49.811Z,101086.56
2022-10-05T22:25:53.867Z,101098.00
2022-10-05T22:30:55.946Z,101088.84
2022-10-05T22:35:59.420Z,101083.59
2022-10-05T22:41:00.964Z,101084.44
2022-10-05T22:46:08.565Z,101104.00
2022-10-05T22:51:10.354Z,101124.75
2022-10-05T22:56:14.147Z,101144.97
2022-10-05T23:01:17.230Z,101151.53
2022-10-05T23:06:20.692Z,101149.44
2022-10-05T23:11:27.685Z,101144.22
2022-10-05T23:16:29.899Z,101174.94
2022-10-05T23:21:31.672Z,101171.59
2022-10-05T23:26:33.834Z,101179.56
2022-10-05T23:31:36.883Z,101199.47
2022-10-05T23:36:38.447Z,101221.88
2022-10-05T23:41:40.476Z,101233.06
2022-10-05T23:46:42.028Z,101242.03
2022-10-05T23:51:44.843Z,101241.03
2022-10-05T23:56:46.439Z,101244.81
